createdAt,value
2022-08-02T00:01:11.007Z,0.43
2022-08-02T00:03:42.792Z,0.37
2022-08-02T00:06:14.583Z,0.50
2022-08-02T00:08:46.392Z,0.50
2022-08-02T00:11:18.182Z,0.50
2022-08-02T00:13:49.977Z,0.50
2022-08-02T00:16:21.776Z,0.50
2022-08-02T00:18:55.230Z,0.70
2022-08-02T00:21:27.026Z,0.47
2022-08-02T00:24:29.440Z,0.47
2022-08-02T00:26:32.245Z,0.47
2022-08-02T00:29:04.043Z,0.50
2022-08-02T00:31:36.035Z,0.30
2022-08-02T00:34:30.440Z,0.70
2022-08-02T00:36:41.293Z,1.40
2022-08-02T00:39:33.842Z,0.60
2022-08-02T00:41:46.544Z,0.40
2022-08-02T00:44:18.334Z,0.77
2022-08-02T00:46:50.122Z,0.40
2022-08-02T00:49:21.978Z,0.30
2022-08-02T00:51:53.854Z,0.50
2022-08-02T00:54:25.953Z,0.33
2022-08-02T00:56:57.791Z,1.73
2022-08-02T00:59:29.613Z,0.53
2022-08-02T01:02:01.561Z,0.30
2022-08-02T01:04:33.509Z,0.37
2022-08-02T01:07:13.146Z,0.73
2022-08-02T01:09:38.784Z,1.93
2022-08-02T01:12:11.827Z,0.37
2022-08-02T01:14:44.164Z,0.60
2022-08-02T01:17:15.946Z,0.60
2022-08-02T01:19:47.752Z,0.40
2022-08-02T01:22:19.538Z,0.43
2022-08-02T01:24:51.349Z,0.70
2022-08-02T01:27:23.173Z,0.60
2022-08-02T01:29:54.975Z,0.20
2022-08-02T01:32:26.817Z,0.70
2022-08-02T01:34:58.625Z,0.63
2022-08-02T01:37:32.683Z,0.80
2022-08-02T01:40:04.496Z,0.53
2022-08-02T01:42:36.291Z,0.50
2022-08-02T01:45:08.119Z,0.40
2022-08-02T01:47:39.930Z,0.70
2022-08-02T01:50:11.787Z,0.73
2022-08-02T01:52:53.396Z,0.50
2022-08-02T01:55:18.600Z,0.70
2022-08-02T01:57:50.468Z,0.60
2022-08-02T02:00:22.283Z,0.70
2022-08-02T02:02:54.075Z,0.57
2022-08-02T02:05:25.913Z,0.60
2022-08-02T02:07:57.751Z,0.77
2022-08-02T02:10:29.541Z,1.10
2022-08-02T02:13:01.370Z,0.70
2022-08-02T02:15:33.221Z,0.70
2022-08-02T02:18:12.530Z,0.70
2022-08-02T02:20:38.450Z,0.60
2022-08-02T02:23:10.251Z,0.70
2022-08-02T02:25:46.947Z,1.00
2022-08-02T02:28:15.830Z,0.60
2022-08-02T02:30:47.623Z,0.53
2022-08-02T02:33:19.415Z,0.57
2022-08-02T02:35:51.265Z,0.70
2022-08-02T02:38:23.035Z,0.30
2022-08-02T02:40:54.873Z,0.47
2022-08-02T02:43:26.649Z,0.50
2022-08-02T02:45:58.444Z,0.53
2022-08-02T02:48:30.279Z,0.50
2022-08-02T02:51:02.082Z,0.60
2022-08-02T02:54:33.796Z,0.50
2022-08-02T02:56:07.389Z,0.70
2022-08-02T02:58:39.190Z,0.60
2022-08-02T03:01:11.208Z,0.50
2022-08-02T03:03:43.029Z,0.60
2022-08-02T03:06:16.212Z,1.17
2022-08-02T03:08:48.051Z,0.80
2022-08-02T03:11:20.163Z,1.23
2022-08-02T03:13:51.977Z,0.57
2022-08-02T03:16:23.825Z,0.50
2022-08-02T03:18:55.656Z,0.60
2022-08-02T03:21:27.444Z,0.80
2022-08-02T03:24:00.895Z,0.60
2022-08-02T03:26:32.742Z,0.50
2022-08-02T03:29:10.097Z,0.60
2022-08-02T03:31:37.983Z,0.80
2022-08-02T03:34:09.858Z,0.67
2022-08-02T03:36:41.641Z,0.70
2022-08-02T03:39:13.480Z,0.60
2022-08-02T03:41:45.294Z,0.53
2022-08-02T03:44:17.136Z,1.10
2022-08-02T03:46:48.976Z,0.70
2022-08-02T03:49:20.847Z,0.60
2022-08-02T03:51:52.749Z,0.90
2022-08-02T03:54:32.917Z,0.80
2022-08-02T03:56:57.992Z,0.50
2022-08-02T03:59:32.569Z,0.60
2022-08-02T04:02:07.296Z,0.80
2022-08-02T04:04:36.748Z,0.60
2022-08-02T04:07:08.521Z,0.93
2022-08-02T04:09:40.384Z,0.53
2022-08-02T04:12:12.513Z,0.70
2022-08-02T04:14:44.619Z,0.53
2022-08-02T04:17:16.435Z,0.80
2022-08-02T04:19:48.254Z,1.00
2022-08-02T04:22:20.064Z,0.80
2022-08-02T04:24:51.880Z,0.70
2022-08-02T04:27:50.833Z,0.90
2022-08-02T04:29:57.706Z,0.57
2022-08-02T04:32:29.529Z,0.93
2022-08-02T04:37:34.842Z,0.90
2022-08-02T04:40:06.638Z,0.93
2022-08-02T04:42:38.436Z,0.80
2022-08-02T04:45:10.261Z,1.60
2022-08-02T04:48:01.590Z,0.83
2022-08-02T04:50:17.208Z,1.00
2022-08-02T04:52:48.997Z,0.77
2022-08-02T04:55:20.834Z,0.97
2022-08-02T04:57:54.131Z,0.70
2022-08-02T05:00:26.027Z,0.70
2022-08-02T05:02:57.951Z,0.70
2022-08-02T05:05:29.807Z,1.97
2022-08-02T05:08:01.626Z,1.07
2022-08-02T05:10:33.450Z,1.03
2022-08-02T05:13:05.254Z,1.30
2022-08-02T05:15:37.087Z,1.93
2022-08-02T05:18:08.903Z,1.30
2022-08-02T05:20:40.706Z,0.90
2022-08-02T05:23:12.510Z,0.83
2022-08-02T05:25:44.336Z,1.10
2022-08-02T05:28:16.126Z,1.17
2022-08-02T05:30:47.972Z,1.00
2022-08-02T05:33:21.508Z,0.80
2022-08-02T05:35:53.274Z,0.73
2022-08-02T05:38:26.146Z,0.90
2022-08-02T05:40:58.197Z,1.90
2022-08-02T05:43:30.023Z,1.07
2022-08-02T05:46:01.793Z,1.27
2022-08-02T05:48:33.640Z,1.10
2022-08-02T05:51:05.435Z,1.03
2022-08-02T05:53:37.279Z,0.97
2022-08-02T05:56:09.117Z,1.30
2022-08-02T05:58:40.916Z,1.30
2022-08-02T06:01:12.795Z,2.20
2022-08-02T06:03:44.644Z,1.00
2022-08-02T06:06:16.473Z,1.20
2022-08-02T06:08:48.438Z,1.10
2022-08-02T06:11:20.281Z,1.50
2022-08-02T06:13:52.085Z,1.40
2022-08-02T06:16:32.129Z,1.20
2022-08-02T06:18:57.394Z,1.20
2022-08-02T06:22:33.474Z,1.10
2022-08-02T06:24:02.652Z,1.40
2022-08-02T06:26:34.482Z,1.87
2022-08-02T06:29:06.268Z,1.33
2022-08-02T06:31:38.077Z,1.20
2022-08-02T06:34:09.842Z,1.17
2022-08-02T06:36:41.747Z,1.60
2022-08-02T06:39:15.110Z,1.53
2022-08-02T06:41:47.008Z,1.47
2022-08-02T06:44:45.988Z,2.00
2022-08-02T06:47:10.032Z,1.60
2022-08-02T06:49:27.475Z,1.77
2022-08-02T06:52:00.809Z,1.70
2022-08-02T06:54:32.707Z,2.10
2022-08-02T06:57:04.517Z,2.37
2022-08-02T06:59:36.302Z,1.87
2022-08-02T07:02:08.241Z,2.53
2022-08-02T07:04:40.107Z,2.53
2022-08-02T07:07:11.916Z,1.93
2022-08-02T07:10:00.378Z,2.10
2022-08-02T07:12:17.158Z,2.40
2022-08-02T07:14:48.998Z,2.03
2022-08-02T07:17:20.765Z,2.53
2022-08-02T07:19:52.556Z,2.67
2022-08-02T07:22:24.415Z,2.70
2022-08-02T07:24:56.385Z,2.90
2022-08-02T07:27:28.245Z,2.40
2022-08-02T07:30:00.026Z,2.77
2022-08-02T07:32:31.838Z,2.80
2022-08-02T07:35:06.900Z,2.30
2022-08-02T07:37:55.039Z,3.50
2022-08-02T07:40:13.830Z,3.07
2022-08-02T07:42:43.954Z,3.20
2022-08-02T07:45:15.758Z,2.67
2022-08-02T07:47:47.537Z,3.17
2022-08-02T07:50:19.379Z,3.17
2022-08-02T07:52:53.692Z,3.20
2022-08-02T07:55:24.585Z,2.80
2022-08-02T07:57:58.029Z,2.70
2022-08-02T08:00:29.837Z,3.27
2022-08-02T08:03:01.637Z,2.03
2022-08-02T08:05:33.455Z,2.63
2022-08-02T08:08:05.281Z,2.50
2022-08-02T08:10:37.101Z,2.47
2022-08-02T08:13:08.931Z,2.97
2022-08-02T08:15:40.728Z,2.53
2022-08-02T08:18:12.545Z,2.70
2022-08-02T08:20:44.351Z,2.37
2022-08-02T08:23:16.146Z,1.93
2022-08-02T08:25:47.966Z,1.93
2022-08-02T08:28:19.790Z,1.83
2022-08-02T08:30:51.612Z,1.73
2022-08-02T08:33:23.466Z,1.90
2022-08-02T08:35:55.271Z,2.10
2022-08-02T08:38:28.087Z,2.10
2022-08-02T08:41:00.468Z,1.90
2022-08-02T08:43:32.250Z,2.10
2022-08-02T08:46:04.082Z,2.20
2022-08-02T08:48:35.908Z,2.30
2022-08-02T08:51:07.698Z,2.50
2022-08-02T08:53:39.516Z,3.00
2022-08-02T08:56:16.246Z,2.50
2022-08-02T08:58:46.467Z,2.63
2022-08-02T09:01:18.353Z,3.47
2022-08-02T09:03:50.306Z,2.87
2022-08-02T09:06:22.116Z,3.50
2022-08-02T09:08:53.950Z,3.33
2022-08-02T09:11:25.822Z,4.10
2022-08-02T09:13:57.614Z,3.57
2022-08-02T09:16:29.461Z,3.37
2022-08-02T09:19:01.615Z,4.57
2022-08-02T09:21:33.738Z,4.00
2022-08-02T09:24:05.552Z,4.33
2022-08-02T09:26:37.448Z,3.90
2022-08-02T09:29:09.258Z,3.27
2022-08-02T09:31:45.595Z,3.13
2022-08-02T09:34:14.578Z,4.13
2022-08-02T09:36:48.064Z,3.97
2022-08-02T09:39:21.503Z,4.70
2022-08-02T09:41:53.286Z,3.60
2022-08-02T09:44:26.566Z,2.97
2022-08-02T09:46:58.334Z,3.77
2022-08-02T09:49:30.228Z,3.30
2022-08-02T09:52:02.008Z,2.83
2022-08-02T09:54:33.844Z,2.67
2022-08-02T09:57:05.707Z,2.57
2022-08-02T09:59:37.579Z,2.03
2022-08-02T10:02:09.560Z,1.83
2022-08-02T10:04:52.917Z,1.93
2022-08-02T10:07:16.354Z,1.37
2022-08-02T10:09:48.157Z,1.40
2022-08-02T10:12:20.052Z,1.33
2022-08-02T10:14:51.832Z,1.27
2022-08-02T10:17:23.659Z,2.50
2022-08-02T10:20:01.706Z,1.50
2022-08-02T10:22:28.938Z,2.23
2022-08-02T10:25:00.912Z,1.47
2022-08-02T10:27:55.160Z,1.80
2022-08-02T10:30:06.230Z,1.60
2022-08-02T10:32:38.062Z,1.40
2022-08-02T10:35:20.107Z,1.43
2022-08-02T10:37:43.375Z,1.63
2022-08-02T10:40:15.188Z,1.70
2022-08-02T10:42:47.007Z,1.20
2022-08-02T10:45:18.836Z,1.30
2022-08-02T10:47:50.669Z,1.20
2022-08-02T10:50:24.096Z,1.30
2022-08-02T10:52:55.880Z,1.00
2022-08-02T10:55:27.891Z,1.43
2022-08-02T10:57:59.719Z,1.30
2022-08-02T11:00:31.590Z,1.40
2022-08-02T11:03:03.459Z,1.33
2022-08-02T11:05:42.647Z,1.40
2022-08-02T11:08:08.904Z,1.27
2022-08-02T11:10:40.744Z,1.13
2022-08-02T11:13:12.585Z,1.37
2022-08-02T11:15:44.469Z,1.30
2022-08-02T11:18:16.228Z,1.40
2022-08-02T11:20:48.042Z,1.00
2022-08-02T11:23:19.915Z,1.50
2022-08-02T11:26:03.722Z,0.90
2022-08-02T11:28:25.724Z,1.30
2022-08-02T11:30:57.923Z,1.20
2022-08-02T11:33:29.857Z,1.03
2022-08-02T11:36:01.696Z,1.10
2022-08-02T11:38:33.634Z,1.00
2022-08-02T11:41:09.542Z,0.87
2022-08-02T11:43:39.031Z,0.87
2022-08-02T11:46:10.897Z,1.03
2022-08-02T11:48:44.072Z,1.10
2022-08-02T11:51:16.274Z,1.00
2022-08-02T11:53:48.162Z,0.80
2022-08-02T11:56:21.758Z,0.80
2022-08-02T11:58:53.697Z,1.00
2022-08-02T12:01:25.592Z,0.60
2022-08-02T12:03:57.595Z,0.80
2022-08-02T12:06:30.007Z,0.90
2022-08-02T12:09:03.149Z,0.90
2022-08-02T12:11:39.121Z,0.87
2022-08-02T12:14:08.487Z,1.03
2022-08-02T12:16:40.300Z,1.10
2022-08-02T12:19:12.676Z,1.17
2022-08-02T12:21:46.139Z,1.17
2022-08-02T12:24:17.944Z,1.47
2022-08-02T12:26:49.753Z,1.27
2022-08-02T12:29:58.395Z,0.93
2022-08-02T12:31:56.898Z,0.80
2022-08-02T12:34:31.241Z,1.07
2022-08-02T12:37:01.960Z,0.77
2022-08-02T12:39:33.846Z,0.70
2022-08-02T12:42:05.682Z,0.75
2022-08-02T12:44:37.604Z,0.80
2022-08-02T12:47:10.107Z,1.05
2022-08-02T12:49:41.949Z,0.50
2022-08-02T12:52:14.091Z,0.80
2022-08-02T12:54:46.105Z,0.75
2022-08-02T12:57:17.998Z,0.55
2022-08-02T12:59:50.701Z,0.93
2022-08-02T13:02:23.145Z,0.50
2022-08-02T13:04:55.682Z,0.70
2022-08-02T13:07:28.281Z,0.50
2022-08-02T13:10:02.811Z,0.70
2022-08-02T13:12:33.538Z,0.93
2022-08-02T13:15:12.265Z,1.87
2022-08-02T13:17:39.509Z,0.60
2022-08-02T13:20:11.400Z,0.68
2022-08-02T13:22:52.920Z,0.60
2022-08-02T13:25:17.393Z,0.60
2022-08-02T13:27:49.227Z,0.72
2022-08-02T13:30:21.613Z,0.98
2022-08-02T13:32:55.821Z,0.68
2022-08-02T13:35:27.457Z,0.80
2022-08-02T13:37:59.277Z,0.78
2022-08-02T13:40:49.192Z,1.30
2022-08-02T13:43:05.145Z,0.90
2022-08-02T13:45:36.954Z,0.80
2022-08-02T13:48:16.663Z,0.80
2022-08-02T13:50:42.325Z,0.72
2022-08-02T13:53:14.730Z,0.70
2022-08-02T13:55:47.172Z,0.70
2022-08-02T13:58:19.007Z,0.65
2022-08-02T14:00:50.799Z,0.60
2022-08-02T14:03:22.599Z,0.68
2022-08-02T14:05:56.639Z,0.70
2022-08-02T14:08:28.459Z,0.60
2022-08-02T14:11:02.915Z,0.88
2022-08-02T14:13:36.264Z,0.93
2022-08-02T14:16:08.680Z,0.90
2022-08-02T14:18:41.099Z,0.85
2022-08-02T14:21:13.477Z,0.85
2022-08-02T14:23:50.341Z,0.75
2022-08-02T14:26:26.686Z,1.00
2022-08-02T14:28:53.331Z,1.13
2022-08-02T14:31:25.182Z,0.60
2022-08-02T14:33:57.007Z,0.70
2022-08-02T14:36:28.839Z,0.80
2022-08-02T14:39:00.662Z,1.00
2022-08-02T14:41:32.490Z,0.70
2022-08-02T14:44:04.348Z,0.80
2022-08-02T14:46:36.150Z,0.70
2022-08-02T14:49:08.088Z,0.90
2022-08-02T14:51:39.914Z,0.83
2022-08-02T14:54:12.029Z,0.90
2022-08-02T14:56:45.444Z,0.47
2022-08-02T14:59:18.859Z,0.70
2022-08-02T15:01:50.698Z,0.97
2022-08-02T15:04:23.303Z,1.47
2022-08-02T15:06:55.128Z,0.50
2022-08-02T15:09:26.951Z,0.53
2022-08-02T15:12:05.357Z,2.10
2022-08-02T15:14:32.214Z,0.90
2022-08-02T15:17:04.053Z,0.50
2022-08-02T17:08:57.097Z,0.47
2022-08-02T17:11:29.576Z,0.60
2022-08-02T17:14:02.051Z,0.40
2022-08-02T17:16:36.295Z,0.45
2022-08-02T17:19:09.771Z,1.15
2022-08-02T17:21:42.270Z,1.07
2022-08-02T17:24:14.711Z,0.90
2022-08-02T17:26:47.129Z,0.82
2022-08-02T17:29:21.170Z,0.53
2022-08-02T17:32:05.472Z,1.25
2022-08-02T17:34:27.627Z,0.70
2022-08-02T17:36:59.994Z,0.60
2022-08-02T17:39:33.977Z,0.80
2022-08-02T17:42:06.414Z,0.28
2022-08-02T17:44:38.901Z,0.50
2022-08-02T17:47:11.994Z,0.45
2022-08-02T17:49:48.373Z,0.40
2022-08-02T17:52:52.130Z,0.53
2022-08-02T17:54:52.926Z,0.65
2022-08-02T17:57:56.060Z,0.85
2022-08-02T18:00:04.053Z,1.52
2022-08-02T18:02:32.726Z,0.88
2022-08-02T18:05:04.588Z,1.20
2022-08-02T18:07:50.957Z,1.00
2022-08-02T18:10:09.864Z,0.73
2022-08-02T18:12:41.693Z,0.53
2022-08-02T18:15:14.919Z,0.93
2022-08-02T18:17:47.027Z,1.03
2022-08-02T18:20:18.927Z,0.80
2022-08-02T18:22:55.711Z,0.87
2022-08-02T18:25:36.785Z,0.80
2022-08-02T18:27:59.237Z,0.70
2022-08-02T18:30:32.897Z,0.60
2022-08-02T18:33:57.374Z,0.50
2022-08-02T18:35:38.544Z,0.80
2022-08-02T18:38:11.009Z,0.50
2022-08-02T18:40:43.732Z,0.97
2022-08-02T18:43:17.147Z,0.40
2022-08-02T18:46:04.798Z,1.10
2022-08-02T18:48:22.467Z,0.57
2022-08-02T18:50:55.935Z,0.53
2022-08-02T18:56:03.826Z,0.70
2022-08-02T18:58:35.140Z,0.63
2022-08-02T19:01:21.694Z,0.40
2022-08-02T19:03:40.414Z,0.37
2022-08-02T19:06:12.229Z,0.67
2022-08-02T19:08:44.787Z,0.60
2022-08-02T19:11:18.215Z,0.40
2022-08-02T19:13:51.836Z,0.37
2022-08-02T19:16:23.715Z,0.40
2022-08-02T19:18:57.173Z,0.57
2022-08-02T19:22:16.291Z,0.57
2022-08-02T19:24:04.564Z,0.90
2022-08-02T19:26:35.867Z,0.47
2022-08-02T19:29:08.757Z,0.50
2022-08-02T19:32:00.166Z,0.50
2022-08-02T19:34:14.306Z,0.50
2022-08-02T19:36:47.737Z,0.30
2022-08-02T19:39:19.572Z,0.80
2022-08-02T19:41:52.970Z,0.90
2022-08-02T19:44:29.499Z,0.87
2022-08-02T19:46:59.852Z,0.93
2022-08-02T19:49:40.022Z,0.73
2022-08-02T19:52:21.310Z,0.70
2022-08-02T19:54:54.359Z,1.23
2022-08-02T19:59:45.472Z,0.77
2022-08-02T20:02:19.026Z,0.60
2022-08-02T20:04:53.000Z,0.53
2022-08-02T20:07:54.758Z,0.50
2022-08-02T20:09:58.447Z,0.60
2022-08-02T20:12:35.230Z,0.50
2022-08-02T20:15:03.718Z,0.60
2022-08-02T20:17:37.140Z,0.50
2022-08-02T20:20:08.952Z,0.50
2022-08-02T20:22:40.768Z,0.70
2022-08-02T20:25:15.961Z,1.17
2022-08-02T20:27:51.228Z,0.50
2022-08-02T20:30:21.305Z,0.43
2022-08-02T20:32:58.917Z,0.60
2022-08-02T20:35:28.158Z,0.57
2022-08-02T20:38:04.805Z,0.53
2022-08-02T20:40:33.496Z,0.60
2022-08-02T20:43:05.366Z,0.60
2022-08-02T20:45:38.811Z,0.57
2022-08-02T20:48:10.623Z,0.83
2022-08-02T20:50:43.834Z,0.67
2022-08-02T20:53:23.909Z,0.60
2022-08-02T20:55:49.086Z,0.47
2022-08-02T20:58:20.902Z,0.97
2022-08-02T21:00:54.337Z,0.50
2022-08-02T21:03:32.396Z,0.47
2022-08-02T21:05:59.884Z,0.60
2022-08-02T21:08:31.706Z,0.70
2022-08-02T21:11:09.638Z,0.60
2022-08-02T21:13:47.407Z,0.90
2022-08-02T21:16:16.376Z,0.60
2022-08-02T21:18:44.819Z,0.50
2022-08-02T21:21:16.641Z,0.50
2022-08-02T21:23:54.464Z,0.70
2022-08-02T21:26:27.971Z,0.70
2022-08-02T21:28:56.020Z,0.70
2022-08-02T21:31:29.947Z,0.50
2022-08-02T21:34:01.281Z,0.67
2022-08-02T21:36:33.969Z,0.47
2022-08-02T21:39:08.979Z,0.60
2022-08-02T21:41:46.127Z,0.60
2022-08-02T21:44:12.919Z,0.90
2022-08-02T21:46:45.292Z,0.57
2022-08-02T21:49:17.430Z,0.40
2022-08-02T21:51:50.375Z,0.37
2022-08-02T21:54:22.307Z,0.73
2022-08-02T21:56:54.214Z,0.40
2022-08-02T21:59:26.818Z,0.87
2022-08-02T22:01:58.677Z,0.40
2022-08-02T22:04:30.632Z,0.40
2022-08-02T22:07:02.494Z,0.37
2022-08-02T22:09:43.394Z,0.60
2022-08-02T22:12:12.556Z,0.37
2022-08-02T22:14:41.218Z,0.53
2022-08-02T22:17:13.550Z,0.40
2022-08-02T22:19:53.740Z,0.57
2022-08-02T22:22:19.437Z,0.60
2022-08-02T22:24:51.277Z,0.60
2022-08-02T22:28:35.762Z,0.43
2022-08-02T22:30:00.666Z,0.40
2022-08-02T22:32:33.721Z,0.60
2022-08-02T22:35:08.707Z,0.83
2022-08-02T22:38:16.844Z,1.30
2022-08-02T22:40:12.785Z,0.57
2022-08-02T22:42:44.674Z,0.40
2022-08-02T22:45:16.541Z,0.40
2022-08-02T22:47:50.717Z,1.07
2022-08-02T22:50:22.010Z,0.60
2022-08-02T22:52:53.982Z,0.40
2022-08-02T22:55:32.279Z,0.30
2022-08-02T22:57:59.650Z,0.53
2022-08-02T22:58:45.839Z,1.10
2022-08-02T22:58:54.018Z,0.80
2022-08-02T23:00:31.426Z,0.93
2022-08-02T23:03:06.863Z,0.83
2022-08-02T23:05:36.711Z,0.43
2022-08-02T23:08:08.668Z,0.50
2022-08-02T23:10:40.471Z,0.83
2022-08-02T23:13:12.262Z,0.50
2022-08-02T23:15:44.228Z,0.50
2022-08-02T23:18:16.179Z,0.40
2022-08-02T23:20:49.695Z,0.70
2022-08-02T23:23:21.510Z,0.77
2022-08-02T23:25:53.329Z,0.70
2022-08-02T23:28:25.136Z,0.70
2022-08-02T23:30:57.022Z,0.50
2022-08-02T23:33:28.817Z,1.07
2022-08-02T23:36:00.664Z,0.63
2022-08-02T23:38:32.533Z,0.50
2022-08-02T23:41:04.342Z,0.40
2022-08-02T23:43:47.059Z,1.13
2022-08-02T23:46:10.833Z,0.33
2022-08-02T23:48:42.627Z,0.57
2022-08-02T23:51:16.353Z,0.63
2022-08-02T23:53:48.040Z,0.30
2022-08-02T23:56:19.901Z,0.60
2022-08-02T23:58:51.748Z,0.70
